Terminal Aerodrome Forecast
Issued by NWS Omaha/Valley, NE

Home | Current Version | Previous Version | Graphics & Text | Print | Product List | Glossary On
Versions: 1 2 3 4 5 6 7 8 9 10 11 12 13 14 15
000
FTUS43 KOAX 171120
TAFOFK
TAF
KOFK 171120Z 1712/1812 32010KT P6SM OVC020
     FM171500 02008KT P6SM SCT025 SCT250
     FM172200 16006KT P6SM BKN250=

USA.gov is the U.S. government's official web portal to all federal, state and local government web resources and services.